sensor_id;sensor_type;location;lat;lon;timestamp;P1;durP1;ratioP1;P2;durP2;ratioP2
791;SDS011;379;49.022;12.148;2023-09-30T00:00:05;4.60;;;3.67;;
791;SDS011;379;49.022;12.148;2023-09-30T00:02:33;14.40;;;5.53;;
791;SDS011;379;49.022;12.148;2023-09-30T00:05:00;14.70;;;4.70;;
791;SDS011;379;49.022;12.148;2023-09-30T00:07:30;7.60;;;4.40;;
791;SDS011;379;49.022;12.148;2023-09-30T00:09:57;6.20;;;3.00;;
791;SDS011;379;49.022;12.148;2023-09-30T00:12:24;9.50;;;4.47;;
791;SDS011;379;49.022;12.148;2023-09-30T00:14:50;12.70;;;4.80;;
791;SDS011;379;49.022;12.148;2023-09-30T00:17:17;11.50;;;5.43;;
791;SDS011;379;49.022;12.148;2023-09-30T00:19:44;8.77;;;3.77;;
791;SDS011;379;49.022;12.148;2023-09-30T00:22:11;7.83;;;2.77;;
791;SDS011;379;49.022;12.148;2023-09-30T00:24:39;8.83;;;4.23;;
791;SDS011;379;49.022;12.148;2023-09-30T00:27:05;14.27;;;3.20;;
791;SDS011;379;49.022;12.148;2023-09-30T00:29:32;11.07;;;3.60;;
791;SDS011;379;49.022;12.148;2023-09-30T00:32:00;11.57;;;4.17;;
791;SDS011;379;49.022;12.148;2023-09-30T00:34:27;15.17;;;4.20;;
791;SDS011;379;49.022;12.148;2023-09-30T00:36:53;3.80;;;3.30;;
791;SDS011;379;49.022;12.148;2023-09-30T00:39:20;7.17;;;3.13;;
791;SDS011;379;49.022;12.148;2023-09-30T00:41:49;7.23;;;3.00;;
791;SDS011;379;49.022;12.148;2023-09-30T00:44:16;7.37;;;3.13;;
791;SDS011;379;49.022;12.148;2023-09-30T00:46:42;8.03;;;2.63;;
791;SDS011;379;49.022;12.148;2023-09-30T00:49:09;9.23;;;3.60;;
791;SDS011;379;49.022;12.148;2023-09-30T00:51:39;13.03;;;5.63;;
791;SDS011;379;49.022;12.148;2023-09-30T00:54:06;6.87;;;3.10;;
791;SDS011;379;49.022;12.148;2023-09-30T00:56:34;5.07;;;3.57;;
791;SDS011;379;49.022;12.148;2023-09-30T00:59:07;2.77;;;2.30;;
791;SDS011;379;49.022;12.148;2023-09-30T01:01:34;7.40;;;3.77;;
791;SDS011;379;49.022;12.148;2023-09-30T01:04:01;8.90;;;4.27;;
791;SDS011;379;49.022;12.148;2023-09-30T01:06:28;8.40;;;2.80;;
791;SDS011;379;49.022;12.148;2023-09-30T01:08:55;8.77;;;3.40;;
791;SDS011;379;49.022;12.148;2023-09-30T01:11:22;5.03;;;3.40;;
791;SDS011;379;49.022;12.148;2023-09-30T01:13:49;6.00;;;2.90;;
791;SDS011;379;49.022;12.148;2023-09-30T01:16:17;4.03;;;1.30;;
791;SDS011;379;49.022;12.148;2023-09-30T01:18:44;6.20;;;2.57;;
791;SDS011;379;49.022;12.148;2023-09-30T01:21:13;11.97;;;2.70;;
791;SDS011;379;49.022;12.148;2023-09-30T01:23:42;4.77;;;2.13;;
791;SDS011;379;49.022;12.148;2023-09-30T01:26:11;5.50;;;2.10;;
791;SDS011;379;49.022;12.148;2023-09-30T01:28:39;9.63;;;2.00;;
791;SDS011;379;49.022;12.148;2023-09-30T01:31:07;9.17;;;2.80;;
791;SDS011;379;49.022;12.148;2023-09-30T01:33:34;8.17;;;2.30;;
791;SDS011;379;49.022;12.148;2023-09-30T01:36:01;9.80;;;2.77;;
791;SDS011;379;49.022;12.148;2023-09-30T01:38:27;8.20;;;2.73;;
791;SDS011;379;49.022;12.148;2023-09-30T01:40:56;4.97;;;2.50;;
791;SDS011;379;49.022;12.148;2023-09-30T01:43:22;5.87;;;2.90;;
791;SDS011;379;49.022;12.148;2023-09-30T01:45:49;4.27;;;2.43;;
791;SDS011;379;49.022;12.148;2023-09-30T01:48:16;4.70;;;3.03;;
791;SDS011;379;49.022;12.148;2023-09-30T01:50:43;16.23;;;4.03;;
791;SDS011;379;49.022;12.148;2023-09-30T01:53:09;7.70;;;3.77;;
791;SDS011;379;49.022;12.148;2023-09-30T01:55:36;6.83;;;2.20;;
791;SDS011;379;49.022;12.148;2023-09-30T01:58:04;6.60;;;2.57;;
791;SDS011;379;49.022;12.148;2023-09-30T02:00:32;6.13;;;2.63;;
791;SDS011;379;49.022;12.148;2023-09-30T02:03:00;8.67;;;2.80;;
791;SDS011;379;49.022;12.148;2023-09-30T02:05:27;3.87;;;2.00;;
791;SDS011;379;49.022;12.148;2023-09-30T02:07:53;5.53;;;3.00;;
791;SDS011;379;49.022;12.148;2023-09-30T02:10:20;4.07;;;2.10;;
791;SDS011;379;49.022;12.148;2023-09-30T02:12:47;4.00;;;2.10;;
791;SDS011;379;49.022;12.148;2023-09-30T02:15:15;5.43;;;3.10;;
791;SDS011;379;49.022;12.148;2023-09-30T02:17:42;5.00;;;1.83;;
791;SDS011;379;49.022;12.148;2023-09-30T02:20:10;10.93;;;3.80;;
791;SDS011;379;49.022;12.148;2023-09-30T02:22:41;6.10;;;2.70;;
791;SDS011;379;49.022;12.148;2023-09-30T02:25:08;4.60;;;1.67;;
791;SDS011;379;49.022;12.148;2023-09-30T02:27:37;2.63;;;1.47;;
791;SDS011;379;49.022;12.148;2023-09-30T02:30:05;8.07;;;3.50;;
791;SDS011;379;49.022;12.148;2023-09-30T02:32:34;2.70;;;1.80;;
791;SDS011;379;49.022;12.148;2023-09-30T02:35:01;2.90;;;1.00;;
791;SDS011;379;49.022;12.148;2023-09-30T02:37:31;2.97;;;1.77;;
791;SDS011;379;49.022;12.148;2023-09-30T02:40:00;5.73;;;3.90;;
791;SDS011;379;49.022;12.148;2023-09-30T02:42:29;3.30;;;2.60;;
791;SDS011;379;49.022;12.148;2023-09-30T02:44:55;7.03;;;2.50;;
791;SDS011;379;49.022;12.148;2023-09-30T02:47:22;3.80;;;2.00;;
791;SDS011;379;49.022;12.148;2023-09-30T02:49:50;7.83;;;2.43;;
791;SDS011;379;49.022;12.148;2023-09-30T02:52:17;4.57;;;3.30;;
791;SDS011;379;49.022;12.148;2023-09-30T02:54:44;6.10;;;3.50;;
791;SDS011;379;49.022;12.148;2023-09-30T02:57:10;2.40;;;2.17;;
791;SDS011;379;49.022;12.148;2023-09-30T02:59:37;4.57;;;2.77;;
791;SDS011;379;49.022;12.148;2023-09-30T03:02:05;8.90;;;2.83;;
791;SDS011;379;49.022;12.148;2023-09-30T03:04:32;9.23;;;2.70;;
791;SDS011;379;49.022;12.148;2023-09-30T03:07:01;3.37;;;2.60;;
791;SDS011;379;49.022;12.148;2023-09-30T03:09:28;7.33;;;2.33;;
791;SDS011;379;49.022;12.148;2023-09-30T03:11:55;5.47;;;3.47;;
791;SDS011;379;49.022;12.148;2023-09-30T03:14:24;5.30;;;2.50;;
791;SDS011;379;49.022;12.148;2023-09-30T03:16:51;3.27;;;1.53;;
791;SDS011;379;49.022;12.148;2023-09-30T03:19:17;5.20;;;2.20;;
791;SDS011;379;49.022;12.148;2023-09-30T03:21:44;1.70;;;1.00;;
791;SDS011;379;49.022;12.148;2023-09-30T03:24:13;4.53;;;3.17;;
791;SDS011;379;49.022;12.148;2023-09-30T03:26:40;6.20;;;2.30;;
791;SDS011;379;49.022;12.148;2023-09-30T03:29:07;3.63;;;2.73;;
791;SDS011;379;49.022;12.148;2023-09-30T03:31:34;7.70;;;3.10;;
791;SDS011;379;49.022;12.148;2023-09-30T03:34:02;3.80;;;2.13;;
791;SDS011;379;49.022;12.148;2023-09-30T03:36:29;3.40;;;1.73;;
791;SDS011;379;49.022;12.148;2023-09-30T03:38:57;5.17;;;2.30;;
791;SDS011;379;49.022;12.148;2023-09-30T03:41:32;5.53;;;2.53;;
791;SDS011;379;49.022;12.148;2023-09-30T03:44:00;3.43;;;1.90;;
791;SDS011;379;49.022;12.148;2023-09-30T03:46:27;5.60;;;2.77;;
791;SDS011;379;49.022;12.148;2023-09-30T03:48:55;3.67;;;2.50;;
791;SDS011;379;49.022;12.148;2023-09-30T03:51:22;4.63;;;2.10;;
791;SDS011;379;49.022;12.148;2023-09-30T03:53:50;6.93;;;2.50;;
791;SDS011;379;49.022;12.148;2023-09-30T03:56:17;6.60;;;3.10;;
791;SDS011;379;49.022;12.148;2023-09-30T03:58:45;7.93;;;2.93;;
791;SDS011;379;49.022;12.148;2023-09-30T04:01:13;9.23;;;4.20;;
791;SDS011;379;49.022;12.148;2023-09-30T04:03:41;11.93;;;3.57;;
791;SDS011;379;49.022;12.148;2023-09-30T04:06:09;10.23;;;3.00;;
791;SDS011;379;49.022;12.148;2023-09-30T04:08:36;9.53;;;4.97;;
791;SDS011;379;49.022;12.148;2023-09-30T04:11:03;8.97;;;2.20;;
791;SDS011;379;49.022;12.148;2023-09-30T04:13:30;8.60;;;3.83;;
791;SDS011;379;49.022;12.148;2023-09-30T04:15:57;6.87;;;3.10;;
791;SDS011;379;49.022;12.148;2023-09-30T04:18:24;4.57;;;2.40;;
791;SDS011;379;49.022;12.148;2023-09-30T04:20:52;4.77;;;2.90;;
791;SDS011;379;49.022;12.148;2023-09-30T04:23:19;4.70;;;3.30;;
791;SDS011;379;49.022;12.148;2023-09-30T04:25:46;9.60;;;5.20;;
791;SDS011;379;49.022;12.148;2023-09-30T04:28:14;4.90;;;1.93;;
791;SDS011;379;49.022;12.148;2023-09-30T04:30:45;4.00;;;2.57;;
791;SDS011;379;49.022;12.148;2023-09-30T04:33:15;6.50;;;2.57;;
791;SDS011;379;49.022;12.148;2023-09-30T04:35:42;6.83;;;2.60;;
791;SDS011;379;49.022;12.148;2023-09-30T04:38:09;4.40;;;2.37;;
791;SDS011;379;49.022;12.148;2023-09-30T04:40:36;6.97;;;2.50;;
791;SDS011;379;49.022;12.148;2023-09-30T04:43:03;6.63;;;3.50;;
791;SDS011;379;49.022;12.148;2023-09-30T04:45:30;6.93;;;2.70;;
791;SDS011;379;49.022;12.148;2023-09-30T04:47:58;6.70;;;2.43;;
791;SDS011;379;49.022;12.148;2023-09-30T04:50:28;4.57;;;3.00;;
791;SDS011;379;49.022;12.148;2023-09-30T04:52:55;5.07;;;2.47;;
791;SDS011;379;49.022;12.148;2023-09-30T04:55:22;5.93;;;2.50;;
791;SDS011;379;49.022;12.148;2023-09-30T04:57:50;7.43;;;2.70;;
791;SDS011;379;49.022;12.148;2023-09-30T05:00:17;12.63;;;3.10;;
791;SDS011;379;49.022;12.148;2023-09-30T05:02:50;4.43;;;1.83;;
791;SDS011;379;49.022;12.148;2023-09-30T05:05:17;10.17;;;2.90;;
791;SDS011;379;49.022;12.148;2023-09-30T05:07:45;7.57;;;2.80;;
791;SDS011;379;49.022;12.148;2023-09-30T05:10:12;4.07;;;2.20;;
791;SDS011;379;49.022;12.148;2023-09-30T05:12:41;5.40;;;4.10;;
791;SDS011;379;49.022;12.148;2023-09-30T05:15:10;4.90;;;3.20;;
791;SDS011;379;49.022;12.148;2023-09-30T05:17:37;3.13;;;1.90;;
791;SDS011;379;49.022;12.148;2023-09-30T05:20:05;3.80;;;2.30;;
791;SDS011;379;49.022;12.148;2023-09-30T05:22:32;5.60;;;2.67;;
791;SDS011;379;49.022;12.148;2023-09-30T05:25:00;2.67;;;2.03;;
791;SDS011;379;49.022;12.148;2023-09-30T05:27:27;6.27;;;2.63;;
791;SDS011;379;49.022;12.148;2023-09-30T05:29:54;4.83;;;1.37;;
791;SDS011;379;49.022;12.148;2023-09-30T05:32:21;4.90;;;3.43;;
791;SDS011;379;49.022;12.148;2023-09-30T05:34:48;5.23;;;2.30;;
791;SDS011;379;49.022;12.148;2023-09-30T05:37:15;7.57;;;2.23;;
791;SDS011;379;49.022;12.148;2023-09-30T05:39:42;6.43;;;3.43;;
791;SDS011;379;49.022;12.148;2023-09-30T05:42:11;5.40;;;2.60;;
791;SDS011;379;49.022;12.148;2023-09-30T05:44:38;2.00;;;1.30;;
791;SDS011;379;49.022;12.148;2023-09-30T05:47:04;6.37;;;3.40;;
791;SDS011;379;49.022;12.148;2023-09-30T05:49:31;4.73;;;1.83;;
791;SDS011;379;49.022;12.148;2023-09-30T05:51:58;6.10;;;2.17;;
791;SDS011;379;49.022;12.148;2023-09-30T05:54:25;4.20;;;2.30;;
791;SDS011;379;49.022;12.148;2023-09-30T05:56:51;4.03;;;2.83;;
791;SDS011;379;49.022;12.148;2023-09-30T05:59:19;5.40;;;2.83;;
791;SDS011;379;49.022;12.148;2023-09-30T06:01:46;6.47;;;3.20;;
791;SDS011;379;49.022;12.148;2023-09-30T06:04:13;7.07;;;2.53;;
791;SDS011;379;49.022;12.148;2023-09-30T06:06:40;6.90;;;1.97;;
791;SDS011;379;49.022;12.148;2023-09-30T06:09:08;4.07;;;2.80;;
791;SDS011;379;49.022;12.148;2023-09-30T06:11:34;4.73;;;2.43;;
791;SDS011;379;49.022;12.148;2023-09-30T06:14:02;3.47;;;2.37;;
791;SDS011;379;49.022;12.148;2023-09-30T06:16:32;6.43;;;2.57;;
791;SDS011;379;49.022;12.148;2023-09-30T06:18:59;5.13;;;2.30;;
791;SDS011;379;49.022;12.148;2023-09-30T06:21:26;4.97;;;2.30;;
791;SDS011;379;49.022;12.148;2023-09-30T06:23:54;1.93;;;1.10;;
791;SDS011;379;49.022;12.148;2023-09-30T06:26:21;9.87;;;2.27;;
791;SDS011;379;49.022;12.148;2023-09-30T06:28:49;4.37;;;2.57;;
791;SDS011;379;49.022;12.148;2023-09-30T06:31:19;4.27;;;1.50;;
791;SDS011;379;49.022;12.148;2023-09-30T06:33:47;4.37;;;1.77;;
791;SDS011;379;49.022;12.148;2023-09-30T06:36:14;2.83;;;2.13;;
791;SDS011;379;49.022;12.148;2023-09-30T06:38:41;3.70;;;2.60;;
791;SDS011;379;49.022;12.148;2023-09-30T06:41:14;6.40;;;1.97;;
791;SDS011;379;49.022;12.148;2023-09-30T06:43:42;3.47;;;2.40;;
791;SDS011;379;49.022;12.148;2023-09-30T06:46:09;6.00;;;2.27;;
791;SDS011;379;49.022;12.148;2023-09-30T06:48:38;8.27;;;2.50;;
791;SDS011;379;49.022;12.148;2023-09-30T06:51:07;5.30;;;2.83;;
791;SDS011;379;49.022;12.148;2023-09-30T06:53:38;4.50;;;1.83;;
791;SDS011;379;49.022;12.148;2023-09-30T06:56:05;4.70;;;2.40;;
791;SDS011;379;49.022;12.148;2023-09-30T06:58:33;5.27;;;1.70;;
791;SDS011;379;49.022;12.148;2023-09-30T07:01:00;4.77;;;2.43;;
791;SDS011;379;49.022;12.148;2023-09-30T07:03:26;2.43;;;1.90;;
791;SDS011;379;49.022;12.148;2023-09-30T07:05:54;4.30;;;2.70;;
791;SDS011;379;49.022;12.148;2023-09-30T07:08:23;4.77;;;2.30;;
791;SDS011;379;49.022;12.148;2023-09-30T07:10:50;7.07;;;1.90;;
791;SDS011;379;49.022;12.148;2023-09-30T07:13:17;3.93;;;2.20;;
791;SDS011;379;49.022;12.148;2023-09-30T07:15:44;3.13;;;1.40;;
791;SDS011;379;49.022;12.148;2023-09-30T07:18:11;3.23;;;1.27;;
791;SDS011;379;49.022;12.148;2023-09-30T07:20:38;3.87;;;2.27;;
791;SDS011;379;49.022;12.148;2023-09-30T07:23:05;2.40;;;1.57;;
791;SDS011;379;49.022;12.148;2023-09-30T07:25:35;2.60;;;1.67;;
791;SDS011;379;49.022;12.148;2023-09-30T07:28:02;3.10;;;1.60;;
791;SDS011;379;49.022;12.148;2023-09-30T07:30:29;1.90;;;1.63;;
791;SDS011;379;49.022;12.148;2023-09-30T07:32:56;3.13;;;1.20;;
791;SDS011;379;49.022;12.148;2023-09-30T07:35:23;3.30;;;1.67;;
791;SDS011;379;49.022;12.148;2023-09-30T07:37:49;3.43;;;1.93;;
791;SDS011;379;49.022;12.148;2023-09-30T07:40:18;2.30;;;1.00;;
791;SDS011;379;49.022;12.148;2023-09-30T07:42:47;4.77;;;1.80;;
791;SDS011;379;49.022;12.148;2023-09-30T07:45:15;1.70;;;0.90;;
791;SDS011;379;49.022;12.148;2023-09-30T07:47:43;2.60;;;1.00;;
791;SDS011;379;49.022;12.148;2023-09-30T07:50:11;2.10;;;0.67;;
791;SDS011;379;49.022;12.148;2023-09-30T07:52:38;2.20;;;0.90;;
791;SDS011;379;49.022;12.148;2023-09-30T07:55:07;2.57;;;1.33;;
791;SDS011;379;49.022;12.148;2023-09-30T07:57:34;1.73;;;0.83;;
791;SDS011;379;49.022;12.148;2023-09-30T08:00:03;1.43;;;0.57;;
791;SDS011;379;49.022;12.148;2023-09-30T08:02:34;2.70;;;1.73;;
791;SDS011;379;49.022;12.148;2023-09-30T08:05:01;1.53;;;0.70;;
791;SDS011;379;49.022;12.148;2023-09-30T08:07:28;1.60;;;0.83;;
791;SDS011;379;49.022;12.148;2023-09-30T08:09:55;0.70;;;0.50;;
791;SDS011;379;49.022;12.148;2023-09-30T08:12:22;2.40;;;1.63;;
791;SDS011;379;49.022;12.148;2023-09-30T08:14:49;0.73;;;0.43;;
791;SDS011;379;49.022;12.148;2023-09-30T08:17:17;0.73;;;0.57;;
791;SDS011;379;49.022;12.148;2023-09-30T08:19:44;0.80;;;0.40;;
791;SDS011;379;49.022;12.148;2023-09-30T08:22:12;1.47;;;0.43;;
791;SDS011;379;49.022;12.148;2023-09-30T08:24:39;1.57;;;0.70;;
791;SDS011;379;49.022;12.148;2023-09-30T08:27:06;2.20;;;1.73;;
791;SDS011;379;49.022;12.148;2023-09-30T08:29:33;2.73;;;1.80;;
791;SDS011;379;49.022;12.148;2023-09-30T08:32:01;2.60;;;1.23;;
791;SDS011;379;49.022;12.148;2023-09-30T08:34:29;1.40;;;0.40;;
791;SDS011;379;49.022;12.148;2023-09-30T08:36:56;0.83;;;0.40;;
791;SDS011;379;49.022;12.148;2023-09-30T08:39:24;3.07;;;0.50;;
791;SDS011;379;49.022;12.148;2023-09-30T08:41:50;0.60;;;0.30;;
791;SDS011;379;49.022;12.148;2023-09-30T08:44:18;0.60;;;0.40;;
791;SDS011;379;49.022;12.148;2023-09-30T08:46:45;0.60;;;0.50;;
791;SDS011;379;49.022;12.148;2023-09-30T08:49:13;0.60;;;0.30;;
791;SDS011;379;49.022;12.148;2023-09-30T08:51:43;0.60;;;0.30;;
791;SDS011;379;49.022;12.148;2023-09-30T08:54:10;0.60;;;0.40;;
791;SDS011;379;49.022;12.148;2023-09-30T08:56:37;0.60;;;0.30;;
791;SDS011;379;49.022;12.148;2023-09-30T08:59:06;0.63;;;0.40;;
791;SDS011;379;49.022;12.148;2023-09-30T09:01:36;1.10;;;0.50;;
791;SDS011;379;49.022;12.148;2023-09-30T09:04:04;0.70;;;0.40;;
791;SDS011;379;49.022;12.148;2023-09-30T09:06:33;0.60;;;0.40;;
791;SDS011;379;49.022;12.148;2023-09-30T09:09:14;0.60;;;0.30;;
791;SDS011;379;49.022;12.148;2023-09-30T09:11:41;0.70;;;0.50;;
791;SDS011;379;49.022;12.148;2023-09-30T09:14:08;1.27;;;0.50;;
791;SDS011;379;49.022;12.148;2023-09-30T09:16:35;0.73;;;0.40;;
791;SDS011;379;49.022;12.148;2023-09-30T09:19:12;1.30;;;0.30;;
791;SDS011;379;49.022;12.148;2023-09-30T09:21:41;0.50;;;0.30;;
791;SDS011;379;49.022;12.148;2023-09-30T09:24:27;0.60;;;0.30;;
791;SDS011;379;49.022;12.148;2023-09-30T09:27:03;0.60;;;0.30;;
791;SDS011;379;49.022;12.148;2023-09-30T09:29:31;0.60;;;0.33;;
791;SDS011;379;49.022;12.148;2023-09-30T09:32:11;0.60;;;0.30;;
791;SDS011;379;49.022;12.148;2023-09-30T09:34:39;0.50;;;0.30;;
791;SDS011;379;49.022;12.148;2023-09-30T09:37:13;0.50;;;0.20;;
791;SDS011;379;49.022;12.148;2023-09-30T09:39:49;0.60;;;0.30;;
791;SDS011;379;49.022;12.148;2023-09-30T09:42:24;0.50;;;0.30;;
791;SDS011;379;49.022;12.148;2023-09-30T09:44:51;0.80;;;0.30;;
791;SDS011;379;49.022;12.148;2023-09-30T09:47:23;0.60;;;0.30;;
791;SDS011;379;49.022;12.148;2023-09-30T09:49:50;0.60;;;0.30;;
791;SDS011;379;49.022;12.148;2023-09-30T09:52:19;0.50;;;0.30;;
791;SDS011;379;49.022;12.148;2023-09-30T09:54:47;0.60;;;0.40;;
791;SDS011;379;49.022;12.148;2023-09-30T09:57:17;0.50;;;0.30;;
791;SDS011;379;49.022;12.148;2023-09-30T09:59:45;0.60;;;0.30;;
791;SDS011;379;49.022;12.148;2023-09-30T10:02:13;2.03;;;0.40;;
791;SDS011;379;49.022;12.148;2023-09-30T10:04:42;0.60;;;0.30;;
791;SDS011;379;49.022;12.148;2023-09-30T10:07:10;0.60;;;0.30;;
791;SDS011;379;49.022;12.148;2023-09-30T10:09:41;0.60;;;0.30;;
791;SDS011;379;49.022;12.148;2023-09-30T10:12:12;0.60;;;0.30;;
791;SDS011;379;49.022;12.148;2023-09-30T10:14:41;4.83;;;0.67;;
791;SDS011;379;49.022;12.148;2023-09-30T10:17:07;0.60;;;0.30;;
791;SDS011;379;49.022;12.148;2023-09-30T10:19:34;1.07;;;0.40;;
791;SDS011;379;49.022;12.148;2023-09-30T10:22:20;0.60;;;0.30;;
791;SDS011;379;49.022;12.148;2023-09-30T10:24:48;1.20;;;0.60;;
791;SDS011;379;49.022;12.148;2023-09-30T10:27:30;0.60;;;0.30;;
791;SDS011;379;49.022;12.148;2023-09-30T10:30:02;0.50;;;0.30;;
791;SDS011;379;49.022;12.148;2023-09-30T10:35:44;0.50;;;0.30;;
791;SDS011;379;49.022;12.148;2023-09-30T10:41:08;0.50;;;0.30;;
791;SDS011;379;49.022;12.148;2023-09-30T10:43:37;1.43;;;0.40;;
791;SDS011;379;49.022;12.148;2023-09-30T10:49:10;1.20;;;0.40;;
791;SDS011;379;49.022;12.148;2023-09-30T10:51:42;0.63;;;0.50;;
791;SDS011;379;49.022;12.148;2023-09-30T10:54:09;0.60;;;0.40;;
791;SDS011;379;49.022;12.148;2023-09-30T10:56:39;0.80;;;0.40;;
791;SDS011;379;49.022;12.148;2023-09-30T10:59:07;0.80;;;0.50;;
791;SDS011;379;49.022;12.148;2023-09-30T11:01:34;2.00;;;0.70;;
791;SDS011;379;49.022;12.148;2023-09-30T11:04:02;0.93;;;0.40;;
791;SDS011;379;49.022;12.148;2023-09-30T11:06:31;0.50;;;0.33;;
791;SDS011;379;49.022;12.148;2023-09-30T11:08:59;0.87;;;0.57;;
791;SDS011;379;49.022;12.148;2023-09-30T11:11:34;0.83;;;0.40;;
791;SDS011;379;49.022;12.148;2023-09-30T11:14:02;0.70;;;0.40;;
791;SDS011;379;49.022;12.148;2023-09-30T11:16:41;0.90;;;0.40;;
791;SDS011;379;49.022;12.148;2023-09-30T11:19:08;0.93;;;0.53;;
791;SDS011;379;49.022;12.148;2023-09-30T11:21:35;1.43;;;0.87;;
791;SDS011;379;49.022;12.148;2023-09-30T11:24:02;1.37;;;1.10;;
791;SDS011;379;49.022;12.148;2023-09-30T11:26:30;1.33;;;1.23;;
791;SDS011;379;49.022;12.148;2023-09-30T11:29:04;0.87;;;0.50;;
791;SDS011;379;49.022;12.148;2023-09-30T11:31:31;1.83;;;0.60;;
791;SDS011;379;49.022;12.148;2023-09-30T11:34:00;2.17;;;1.03;;
791;SDS011;379;49.022;12.148;2023-09-30T11:36:29;2.07;;;0.63;;
791;SDS011;379;49.022;12.148;2023-09-30T11:38:56;2.43;;;1.37;;
791;SDS011;379;49.022;12.148;2023-09-30T11:41:32;1.90;;;0.93;;
791;SDS011;379;49.022;12.148;2023-09-30T11:44:01;1.83;;;0.80;;
791;SDS011;379;49.022;12.148;2023-09-30T11:46:32;1.60;;;1.00;;
791;SDS011;379;49.022;12.148;2023-09-30T11:49:23;4.13;;;1.03;;
791;SDS011;379;49.022;12.148;2023-09-30T11:51:51;1.47;;;1.00;;
791;SDS011;379;49.022;12.148;2023-09-30T11:54:17;0.90;;;0.60;;
791;SDS011;379;49.022;12.148;2023-09-30T11:56:44;3.73;;;0.70;;
791;SDS011;379;49.022;12.148;2023-09-30T11:59:12;1.60;;;1.17;;
791;SDS011;379;49.022;12.148;2023-09-30T12:01:39;1.67;;;1.03;;
791;SDS011;379;49.022;12.148;2023-09-30T12:04:06;2.23;;;0.90;;
791;SDS011;379;49.022;12.148;2023-09-30T12:06:35;3.03;;;1.00;;
791;SDS011;379;49.022;12.148;2023-09-30T12:09:03;0.90;;;0.63;;
791;SDS011;379;49.022;12.148;2023-09-30T12:11:30;1.77;;;0.93;;
791;SDS011;379;49.022;12.148;2023-09-30T12:13:57;2.10;;;1.77;;
791;SDS011;379;49.022;12.148;2023-09-30T12:16:24;0.70;;;0.53;;
791;SDS011;379;49.022;12.148;2023-09-30T12:18:50;0.97;;;0.73;;
791;SDS011;379;49.022;12.148;2023-09-30T12:21:17;2.47;;;1.20;;
791;SDS011;379;49.022;12.148;2023-09-30T12:23:46;1.03;;;0.70;;
791;SDS011;379;49.022;12.148;2023-09-30T12:26:14;3.43;;;1.27;;
791;SDS011;379;49.022;12.148;2023-09-30T12:28:42;1.57;;;0.63;;
791;SDS011;379;49.022;12.148;2023-09-30T12:31:09;3.27;;;0.90;;
791;SDS011;379;49.022;12.148;2023-09-30T12:33:36;2.50;;;1.07;;
791;SDS011;379;49.022;12.148;2023-09-30T12:36:03;1.00;;;0.90;;
791;SDS011;379;49.022;12.148;2023-09-30T12:38:30;2.17;;;1.10;;
791;SDS011;379;49.022;12.148;2023-09-30T12:40:58;2.03;;;0.80;;
791;SDS011;379;49.022;12.148;2023-09-30T12:43:25;2.50;;;1.20;;
791;SDS011;379;49.022;12.148;2023-09-30T12:45:52;3.67;;;1.60;;
791;SDS011;379;49.022;12.148;2023-09-30T12:48:19;1.17;;;0.80;;
791;SDS011;379;49.022;12.148;2023-09-30T12:50:46;2.13;;;1.50;;
791;SDS011;379;49.022;12.148;2023-09-30T12:53:13;1.10;;;0.70;;
791;SDS011;379;49.022;12.148;2023-09-30T12:55:40;3.87;;;1.10;;
791;SDS011;379;49.022;12.148;2023-09-30T12:58:09;1.83;;;1.73;;
791;SDS011;379;49.022;12.148;2023-09-30T13:00:37;1.07;;;0.97;;
791;SDS011;379;49.022;12.148;2023-09-30T13:03:05;3.53;;;1.30;;
791;SDS011;379;49.022;12.148;2023-09-30T13:05:32;1.13;;;0.90;;
791;SDS011;379;49.022;12.148;2023-09-30T13:07:59;5.43;;;1.37;;
791;SDS011;379;49.022;12.148;2023-09-30T13:10:26;3.40;;;1.30;;
791;SDS011;379;49.022;12.148;2023-09-30T13:12:54;2.77;;;1.30;;
791;SDS011;379;49.022;12.148;2023-09-30T13:15:24;1.00;;;0.60;;
791;SDS011;379;49.022;12.148;2023-09-30T13:17:51;1.57;;;1.33;;
791;SDS011;379;49.022;12.148;2023-09-30T13:20:18;1.90;;;1.30;;
791;SDS011;379;49.022;12.148;2023-09-30T13:22:45;2.03;;;1.20;;
791;SDS011;379;49.022;12.148;2023-09-30T13:25:12;4.83;;;1.40;;
791;SDS011;379;49.022;12.148;2023-09-30T13:27:40;5.57;;;1.70;;
791;SDS011;379;49.022;12.148;2023-09-30T13:30:08;0.90;;;0.83;;
791;SDS011;379;49.022;12.148;2023-09-30T13:32:36;2.47;;;1.80;;
791;SDS011;379;49.022;12.148;2023-09-30T13:35:04;2.03;;;1.40;;
791;SDS011;379;49.022;12.148;2023-09-30T13:37:32;2.80;;;1.00;;
791;SDS011;379;49.022;12.148;2023-09-30T13:39:59;1.83;;;1.10;;
791;SDS011;379;49.022;12.148;2023-09-30T13:42:27;2.00;;;1.70;;
791;SDS011;379;49.022;12.148;2023-09-30T13:44:55;1.87;;;1.13;;
791;SDS011;379;49.022;12.148;2023-09-30T13:47:23;1.50;;;1.00;;
791;SDS011;379;49.022;12.148;2023-09-30T13:49:52;2.07;;;1.87;;
791;SDS011;379;49.022;12.148;2023-09-30T13:52:20;3.90;;;2.03;;
791;SDS011;379;49.022;12.148;2023-09-30T13:54:46;2.60;;;1.40;;
791;SDS011;379;49.022;12.148;2023-09-30T13:57:13;3.40;;;1.57;;
791;SDS011;379;49.022;12.148;2023-09-30T13:59:40;1.70;;;1.20;;
791;SDS011;379;49.022;12.148;2023-09-30T14:02:08;2.80;;;1.87;;
791;SDS011;379;49.022;12.148;2023-09-30T14:04:34;1.63;;;1.00;;
791;SDS011;379;49.022;12.148;2023-09-30T14:07:02;4.23;;;1.20;;
791;SDS011;379;49.022;12.148;2023-09-30T14:09:30;1.73;;;0.93;;
791;SDS011;379;49.022;12.148;2023-09-30T14:11:57;2.97;;;1.50;;
791;SDS011;379;49.022;12.148;2023-09-30T14:14:24;1.80;;;1.50;;
791;SDS011;379;49.022;12.148;2023-09-30T14:16:51;3.90;;;1.80;;
791;SDS011;379;49.022;12.148;2023-09-30T14:19:18;1.83;;;1.27;;
791;SDS011;379;49.022;12.148;2023-09-30T14:21:45;1.30;;;0.70;;
791;SDS011;379;49.022;12.148;2023-09-30T14:24:15;3.23;;;1.27;;
791;SDS011;379;49.022;12.148;2023-09-30T14:26:42;1.63;;;1.40;;
791;SDS011;379;49.022;12.148;2023-09-30T14:29:09;3.93;;;1.10;;
791;SDS011;379;49.022;12.148;2023-09-30T14:31:37;5.27;;;1.60;;
791;SDS011;379;49.022;12.148;2023-09-30T14:34:04;1.23;;;1.13;;
791;SDS011;379;49.022;12.148;2023-09-30T14:36:31;2.50;;;1.30;;
791;SDS011;379;49.022;12.148;2023-09-30T14:38:58;3.60;;;1.80;;
791;SDS011;379;49.022;12.148;2023-09-30T14:41:26;1.43;;;0.97;;
791;SDS011;379;49.022;12.148;2023-09-30T14:43:53;1.93;;;0.97;;
791;SDS011;379;49.022;12.148;2023-09-30T14:46:19;1.17;;;1.07;;
791;SDS011;379;49.022;12.148;2023-09-30T14:48:47;2.53;;;1.60;;
791;SDS011;379;49.022;12.148;2023-09-30T14:51:15;2.97;;;1.30;;
791;SDS011;379;49.022;12.148;2023-09-30T14:53:41;2.47;;;1.87;;
791;SDS011;379;49.022;12.148;2023-09-30T14:56:14;1.53;;;1.43;;
791;SDS011;379;49.022;12.148;2023-09-30T14:58:43;3.60;;;1.20;;
791;SDS011;379;49.022;12.148;2023-09-30T15:01:10;2.40;;;1.37;;
791;SDS011;379;49.022;12.148;2023-09-30T15:03:38;3.87;;;1.23;;
791;SDS011;379;49.022;12.148;2023-09-30T15:06:05;2.93;;;1.43;;
791;SDS011;379;49.022;12.148;2023-09-30T15:08:32;3.37;;;2.20;;
791;SDS011;379;49.022;12.148;2023-09-30T15:10:59;3.40;;;1.77;;
791;SDS011;379;49.022;12.148;2023-09-30T15:13:26;1.73;;;1.10;;
791;SDS011;379;49.022;12.148;2023-09-30T15:15:55;3.20;;;1.40;;
791;SDS011;379;49.022;12.148;2023-09-30T15:18:22;5.07;;;2.20;;
791;SDS011;379;49.022;12.148;2023-09-30T15:20:49;3.00;;;1.50;;
791;SDS011;379;49.022;12.148;2023-09-30T15:23:16;3.60;;;1.87;;
791;SDS011;379;49.022;12.148;2023-09-30T15:25:43;3.27;;;2.00;;
791;SDS011;379;49.022;12.148;2023-09-30T15:28:10;3.53;;;1.50;;
791;SDS011;379;49.022;12.148;2023-09-30T15:30:37;2.63;;;1.50;;
791;SDS011;379;49.022;12.148;2023-09-30T15:33:06;4.17;;;1.97;;
791;SDS011;379;49.022;12.148;2023-09-30T15:35:33;3.50;;;1.70;;
791;SDS011;379;49.022;12.148;2023-09-30T15:38:00;5.97;;;1.60;;
791;SDS011;379;49.022;12.148;2023-09-30T15:40:27;4.70;;;2.93;;
791;SDS011;379;49.022;12.148;2023-09-30T15:42:53;10.37;;;1.50;;